Time;durP1;ratioP1;P1;durP2;ratioP2;P2;SDS_P1;SDS_P2;PMS_P1;PMS_P2;Temp;Humidity;BMP_temperature;BMP_pressure;BME280_temperature;BME280_humidity;BME280_pressure;Samples;Min_cycle;Max_cycle;Signal;HPM_P1;HPM_P2
2023/06/08 00:02:24;;;;;;;10.45;9.40;;;;;;;16.51;85.48;100964.28;6031704;23;20633;-71
2023/06/08 00:04:54;;;;;;;12.70;9.00;;;;;;;17.53;85.92;101143.34;6000815;23;21245;-70
2023/06/08 00:07:21;;;;;;;14.45;9.23;;;;;;;17.63;86.47;101154.09;6024412;23;20023;-70
2023/06/08 00:09:50;;;;;;;12.00;9.25;;;;;;;17.62;86.69;101149.75;6000688;23;20039;-70
2023/06/08 00:12:18;;;;;;;12.00;8.70;;;;;;;16.51;86.48;100980.19;6004558;23;20042;-70
2023/06/08 00:14:45;;;;;;;9.20;8.30;;;;;;;17.55;86.79;101150.22;6005102;23;20027;-70
2023/06/08 00:17:13;;;;;;;8.98;8.07;;;;;;;16.35;86.60;100957.44;6009108;23;20065;-70
2023/06/08 00:19:42;;;;;;;10.00;8.95;;;;;;;17.46;87.18;101165.97;6007789;23;20017;-70
2023/06/08 00:22:13;;;;;;;11.82;8.55;;;;;;;17.41;87.30;101146.91;6001690;23;20007;-70
2023/06/08 00:24:40;;;;;;;10.25;9.05;;;;;;;16.57;87.53;101019.50;6031861;23;20043;-70
2023/06/08 00:27:08;;;;;;;9.73;8.88;;;;;;;17.37;87.88;101148.91;5975894;23;20039;-70
2023/06/08 00:29:35;;;;;;;11.20;9.23;;;;;;;17.43;87.85;101158.25;6027651;23;20108;-70
2023/06/08 00:32:02;;;;;;;8.85;8.05;;;;;;;17.45;88.19;101158.97;6002742;23;20082;-70
2023/06/08 00:34:29;;;;;;;12.88;9.35;;;;;;;17.44;88.13;101163.44;6005702;23;20042;-70
2023/06/08 00:36:55;;;;;;;9.30;8.50;;;;;;;17.28;88.11;101133.66;6001260;23;20171;-70
2023/06/08 00:39:22;;;;;;;13.57;8.80;;;;;;;17.46;88.55;101165.97;6030334;23;20105;-70
2023/06/08 00:41:49;;;;;;;8.73;8.00;;;;;;;17.31;88.95;101136.94;5998667;23;20031;-70
2023/06/08 00:44:15;;;;;;;9.23;8.30;;;;;;;17.21;88.77;101127.13;6007005;23;20027;-71
2023/06/08 00:46:42;;;;;;;10.20;9.13;;;;;;;16.33;89.57;100996.44;6004193;23;20617;-71
2023/06/08 00:49:15;;;;;;;12.90;9.35;;;;;;;17.33;90.28;101176.63;6025830;23;20619;-71
2023/06/08 00:51:43;;;;;;;15.27;9.63;;;;;;;17.29;90.61;101172.53;6003686;23;20118;-71
2023/06/08 00:54:12;;;;;;;9.52;8.63;;;;;;;16.17;90.15;101006.44;6027140;23;20031;-70
2023/06/08 00:56:40;;;;;;;9.40;8.50;;;;;;;16.14;90.66;100988.16;5999559;23;20019;-70
2023/06/08 00:59:09;;;;;;;10.60;9.52;;;;;;;17.15;91.01;101157.59;6029974;23;20026;-71
2023/06/08 01:01:38;;;;;;;10.13;9.05;;;;;;;15.94;91.29;100974.50;5997225;23;20036;-70
2023/06/08 01:04:05;;;;;;;13.88;9.32;;;;;;;16.16;91.85;101015.38;6003224;23;20019;-70
2023/06/08 01:06:38;;;;;;;10.55;9.27;;;;;;;17.11;91.75;101167.59;6000524;23;20543;-70
2023/06/08 01:09:33;;;;;;;10.43;9.00;;;;;;;17.03;91.50;101159.34;6024177;23;20406;-71
2023/06/08 01:12:24;;;;;;;10.88;9.82;;;;;;;15.89;92.08;100991.66;6002672;23;20023;-70
2023/06/08 01:15:00;;;;;;;10.93;9.82;;;;;;;16.00;92.47;101010.28;6000249;23;20089;-71
2023/06/08 01:17:37;;;;;;;9.75;8.80;;;;;;;13.40;92.48;100584.03;6010712;23;20651;-70
2023/06/08 01:20:46;;;;;;;11.00;9.88;;;;;;;16.90;92.97;101170.00;5999532;23;20095;-70
2023/06/08 01:23:37;;;;;;;10.07;9.15;;;;;;;16.84;94.43;101169.56;6001232;23;20496;-71
2023/06/08 01:26:04;;;;;;;9.52;8.63;;;;;;;16.79;94.96;101169.03;6029911;23;20051;-71
2023/06/08 01:28:31;;;;;;;14.77;9.63;;;;;;;16.66;94.68;101155.81;5997684;23;20034;-70
2023/06/08 01:30:58;;;;;;;10.60;9.23;;;;;;;16.47;95.53;101145.63;6016598;23;20070;-70
2023/06/08 01:33:29;;;;;;;10.05;9.05;;;;;;;15.32;96.15;100969.09;5985111;23;20050;-70
2023/06/08 01:36:02;;;;;;;9.80;8.80;;;;;;;15.25;96.80;100973.91;6004692;23;20074;-70
2023/06/08 01:38:46;;;;;;;13.85;10.27;;;;;;;16.45;98.15;101174.88;5963423;23;20027;-70
2023/06/08 01:41:20;;;;;;;10.23;9.13;;;;;;;16.30;98.55;101162.72;5995290;23;20123;-70
2023/06/08 01:43:50;;;;;;;10.45;9.35;;;;;;;16.37;99.06;101179.84;6025706;23;20030;-71
2023/06/08 01:46:18;;;;;;;10.45;9.35;;;;;;;15.07;99.26;100994.50;5977386;23;20086;-69
2023/06/08 01:48:47;;;;;;;10.43;9.30;;;;;;;15.35;100.00;101040.25;5985389;23;20025;-70
2023/06/08 01:51:15;;;;;;;14.95;9.35;;;;;;;16.15;100.00;101175.19;6000258;23;20025;-69
2023/06/08 01:53:42;;;;;;;13.52;9.45;;;;;;;16.13;100.00;101182.38;5999012;23;20098;-70
2023/06/08 01:56:09;;;;;;;10.18;9.13;;;;;;;15.80;100.00;101138.72;6005412;23;20443;-70
2023/06/08 01:58:35;;;;;;;12.02;9.35;;;;;;;15.94;100.00;101165.09;6011801;23;20410;-69
2023/06/08 02:01:02;;;;;;;10.18;9.20;;;;;;;15.14;100.00;101026.69;6003899;23;20098;-70
2023/06/08 02:03:28;;;;;;;11.88;9.43;;;;;;;15.61;100.00;101111.75;6035131;23;20087;-70
2023/06/08 02:05:55;;;;;;;11.55;10.40;;;;;;;16.01;100.00;101169.97;6005729;23;20034;-70
2023/06/08 02:08:21;;;;;;;13.38;10.25;;;;;;;16.06;100.00;101179.31;6019758;23;20583;-70
2023/06/08 02:10:47;;;;;;;12.15;9.95;;;;;;;15.91;100.00;101164.44;6008054;23;20043;-70
2023/06/08 02:13:14;;;;;;;10.18;9.15;;;;;;;14.90;100.00;100971.84;6038129;23;20038;-70
2023/06/08 02:15:40;;;;;;;10.45;9.55;;;;;;;16.10;100.00;101169.38;6004336;23;20035;-70
2023/06/08 02:18:07;;;;;;;9.90;8.90;;;;;;;15.85;100.00;101120.72;6028630;23;20019;-70
2023/06/08 02:20:34;;;;;;;10.43;9.32;;;;;;;15.87;100.00;101124.09;6008286;23;20039;-70
2023/06/08 02:23:00;;;;;;;10.50;9.02;;;;;;;16.19;100.00;101181.13;5983046;23;20398;-70
2023/06/08 02:25:27;;;;;;;11.18;9.23;;;;;;;16.13;100.00;101171.78;6028979;23;20066;-70
2023/06/08 02:27:53;;;;;;;10.20;9.38;;;;;;;14.87;100.00;100961.47;5996395;23;20050;-69
2023/06/08 02:30:20;;;;;;;11.07;9.38;;;;;;;16.13;100.00;101179.72;6012912;23;20023;-70
2023/06/08 02:32:46;;;;;;;10.63;9.57;;;;;;;16.06;100.00;101173.16;6004562;23;20063;-70
2023/06/08 02:35:13;;;;;;;14.73;9.63;;;;;;;15.54;100.00;101106.88;5977789;23;20094;-69
2023/06/08 02:37:39;;;;;;;12.23;9.60;;;;;;;15.34;100.00;101075.59;6001495;23;20086;-69
2023/06/08 02:40:08;;;;;;;10.95;9.50;;;;;;;15.86;100.00;101171.88;6001887;23;20075;-71
2023/06/08 02:42:35;;;;;;;10.73;9.65;;;;;;;14.81;100.00;100993.56;6022645;23;20185;-69
2023/06/08 02:45:01;;;;;;;9.10;8.38;;;;;;;15.89;100.00;101175.13;6005835;23;20537;-69
2023/06/08 02:47:28;;;;;;;10.05;9.13;;;;;;;15.02;100.00;101054.78;6042399;23;20695;-69
2023/06/08 02:49:54;;;;;;;9.57;8.68;;;;;;;15.73;100.00;101177.94;6004076;23;20123;-69
2023/06/08 02:52:21;;;;;;;15.05;9.05;;;;;;;14.67;100.00;101023.56;6021563;23;20616;-69
2023/06/08 02:54:47;;;;;;;11.57;9.13;;;;;;;15.67;100.00;101183.63;6000907;23;20023;-69
2023/06/08 02:57:14;;;;;;;10.02;9.02;;;;;;;15.43;100.00;101150.84;6024134;23;20038;-70
2023/06/08 02:59:40;;;;;;;12.05;8.30;;;;;;;15.42;100.00;101162.38;5993734;23;20011;-70
2023/06/08 03:02:07;;;;;;;11.45;9.18;;;;;;;15.42;100.00;101173.81;6031467;23;20564;-69
2023/06/08 03:04:34;;;;;;;9.63;8.63;;;;;;;15.47;100.00;101189.38;5987337;23;20066;-69
2023/06/08 03:07:01;;;;;;;10.77;9.18;;;;;;;15.46;100.00;101191.16;6008607;23;20031;-69
2023/06/08 03:09:30;;;;;;;10.05;9.05;;;;;;;15.14;100.00;101138.56;6033519;23;20038;-69
2023/06/08 03:11:57;;;;;;;17.02;9.02;;;;;;;15.38;100.00;101185.53;5995144;23;20480;-69
2023/06/08 03:14:28;;;;;;;15.45;9.02;;;;;;;15.35;100.00;101175.13;6029619;23;20043;-69
2023/06/08 03:17:02;;;;;;;11.83;9.77;;;;;;;13.54;100.00;100878.44;6004112;23;20061;-70
2023/06/08 03:19:30;;;;;;;10.68;9.15;;;;;;;15.22;100.00;101151.28;6024445;23;20363;-69
2023/06/08 03:21:59;;;;;;;10.73;8.82;;;;;;;14.41;100.00;101050.72;5999079;23;20705;-69
2023/06/08 03:24:28;;;;;;;11.40;9.23;;;;;;;15.03;100.00;101141.03;6003348;23;20821;-69
2023/06/08 03:27:00;;;;;;;9.75;8.85;;;;;;;13.63;100.00;100904.25;6023541;23;20094;-69
2023/06/08 03:29:28;;;;;;;13.70;8.30;;;;;;;15.26;100.00;101176.59;6002918;23;20094;-69
2023/06/08 03:31:54;;;;;;;12.05;9.05;;;;;;;15.12;100.00;101158.13;6003205;23;20031;-70
2023/06/08 03:34:25;;;;;;;11.70;8.95;;;;;;;15.18;100.00;101170.09;6008281;23;20034;-70
2023/06/08 03:36:53;;;;;;;9.02;8.23;;;;;;;13.96;100.00;100967.25;5996484;23;20586;-69
2023/06/08 03:39:20;;;;;;;10.15;8.98;;;;;;;15.13;100.00;101160.69;6034340;23;20042;-70
2023/06/08 03:41:46;;;;;;;10.52;9.13;;;;;;;14.90;100.00;101125.13;6007264;23;20030;-70
2023/06/08 03:44:13;;;;;;;12.05;9.13;;;;;;;14.79;100.00;101138.16;6013187;23;20038;-71
2023/06/08 03:46:40;;;;;;;10.38;9.35;;;;;;;15.19;100.00;101170.00;6006094;23;20035;-70
2023/06/08 03:49:06;;;;;;;13.52;8.95;;;;;;;15.10;100.00;101147.63;6028273;23;20093;-71
2023/06/08 03:51:32;;;;;;;9.45;8.57;;;;;;;15.22;100.00;101168.97;6005435;23;20018;-70
2023/06/08 03:53:59;;;;;;;10.02;9.02;;;;;;;15.14;100.00;101141.22;6000976;23;20066;-70
2023/06/08 03:56:26;;;;;;;11.82;8.20;;;;;;;15.34;100.00;101165.53;6036517;23;20561;-70
2023/06/08 03:58:53;;;;;;;14.98;8.25;;;;;;;14.10;100.00;100962.91;6001019;23;20459;-70
2023/06/08 04:01:22;;;;;;;9.25;8.32;;;;;;;15.41;100.00;101158.88;6003069;23;20086;-70
2023/06/08 04:03:48;;;;;;;10.73;9.65;;;;;;;15.04;100.00;101089.88;6008550;23;20094;-71
2023/06/08 04:06:16;;;;;;;9.63;8.65;;;;;;;15.52;100.00;101159.03;6000457;23;20020;-70
2023/06/08 04:08:44;;;;;;;15.68;8.88;;;;;;;15.75;100.00;101157.56;6029670;23;20098;-70
2023/06/08 04:11:14;;;;;;;11.90;8.85;;;;;;;15.11;100.00;101011.00;6000527;23;20053;-71
2023/06/08 04:13:41;;;;;;;13.25;9.65;;;;;;;16.05;100.00;101079.63;6031327;23;20132;-70
2023/06/08 04:16:09;;;;;;;12.70;8.95;;;;;;;15.83;100.00;100982.34;6002235;23;20446;-70
2023/06/08 04:18:39;;;;;;;10.77;8.95;;;;;;;17.18;100.00;101146.78;6030558;23;20046;-71
2023/06/08 04:21:06;;;;;;;17.08;9.65;;;;;;;16.38;97.33;100971.44;6000056;23;20043;-70
2023/06/08 04:23:34;;;;;;;13.30;9.13;;;;;;;17.47;93.90;101134.00;6004685;23;20657;-71
2023/06/08 04:26:06;;;;;;;10.27;9.23;;;;;;;17.69;91.94;101135.91;6025001;23;20023;-71
2023/06/08 04:28:34;;;;;;;9.07;8.20;;;;;;;17.99;90.46;101123.13;6003869;23;20037;-70
2023/06/08 04:31:01;;;;;;;8.95;8.10;;;;;;;17.66;88.39;101022.03;6029228;23;20327;-70
2023/06/08 04:33:28;;;;;;;10.38;8.70;;;;;;;17.26;86.17;100884.47;5998594;23;20069;-71
2023/06/08 04:35:55;;;;;;;11.13;8.75;;;;;;;19.01;84.01;101113.34;6006036;23;20121;-71
2023/06/08 04:38:22;;;;;;;9.13;8.27;;;;;;;19.38;81.85;101095.19;5997720;23;20031;-70
2023/06/08 04:40:53;;;;;;;10.45;8.80;;;;;;;19.81;80.26;101083.63;5996162;23;20020;-71
2023/06/08 04:43:20;;;;;;;11.45;8.82;;;;;;;20.16;77.94;101070.91;6004201;23;20089;-70
2023/06/08 04:45:59;;;;;;;9.27;8.40;;;;;;;20.43;75.11;101027.69;5999032;23;20042;-71
2023/06/08 04:48:29;;;;;;;9.25;8.38;;;;;;;20.98;73.11;101037.91;6019908;23;20114;-71
2023/06/08 04:50:59;;;;;;;11.65;8.38;;;;;;;21.45;71.93;101014.88;6008471;23;20064;-71
2023/06/08 04:53:26;;;;;;;9.75;8.85;;;;;;;20.47;69.79;100775.81;5996991;23;20575;-71
2023/06/08 04:56:02;;;;;;;9.38;8.57;;;;;;;21.95;68.17;100951.44;6029004;23;20029;-71
2023/06/08 04:58:30;;;;;;;9.63;8.75;;;;;;;22.00;66.70;100888.53;6000823;23;20063;-71
2023/06/08 05:00:56;;;;;;;9.30;8.35;;;;;;;22.25;65.23;100879.00;6025402;23;20036;-71
2023/06/08 05:03:24;;;;;;;11.32;8.68;;;;;;;21.66;64.20;100755.59;6003012;23;20035;-71
2023/06/08 05:05:51;;;;;;;9.18;8.38;;;;;;;22.17;64.17;100837.91;6029651;23;20481;-71
2023/06/08 05:08:18;;;;;;;10.35;8.52;;;;;;;22.43;63.95;100843.38;5998915;23;20031;-71
2023/06/08 05:10:44;;;;;;;13.73;9.20;;;;;;;21.01;63.31;100632.06;6002835;23;20094;-71
2023/06/08 05:13:11;;;;;;;9.80;8.77;;;;;;;21.00;64.37;100740.59;6014270;23;20484;-71
2023/06/08 05:15:37;;;;;;;12.68;8.45;;;;;;;21.26;64.09;100762.09;6000868;23;20035;-71
2023/06/08 05:18:04;;;;;;;10.60;7.57;;;;;;;20.80;63.37;100608.31;6029084;23;20027;-71
2023/06/08 05:20:30;;;;;;;11.55;8.60;;;;;;;21.03;63.95;100734.97;6002545;23;20026;-70
2023/06/08 05:22:58;;;;;;;14.55;8.55;;;;;;;20.45;63.65;100620.50;5999072;23;20023;-71
2023/06/08 05:25:26;;;;;;;9.55;8.35;;;;;;;20.99;63.82;100760.28;6025737;23;20040;-71
2023/06/08 05:27:53;;;;;;;10.75;8.57;;;;;;;19.86;65.22;100614.47;5999037;23;20018;-71
2023/06/08 05:30:19;;;;;;;10.80;8.57;;;;;;;21.04;64.29;100749.97;6028134;23;20529;-71
2023/06/08 05:32:46;;;;;;;10.43;8.20;;;;;;;20.80;64.41;100723.00;6005404;23;20022;-71
2023/06/08 05:35:12;;;;;;;9.10;8.20;;;;;;;20.47;65.30;100726.00;6027337;23;20049;-71
2023/06/08 05:37:38;;;;;;;11.88;8.63;;;;;;;20.33;65.78;100732.63;5996942;23;20034;-71
2023/06/08 05:40:06;;;;;;;9.40;8.52;;;;;;;20.10;65.22;100653.97;6027156;23;20040;-70
2023/06/08 05:42:33;;;;;;;11.95;8.70;;;;;;;20.92;64.73;100767.16;5997998;23;20030;-70
2023/06/08 05:44:59;;;;;;;13.02;9.35;;;;;;;20.84;63.22;100641.69;5999644;23;20238;-70
2023/06/08 05:47:25;;;;;;;12.90;9.27;;;;;;;21.09;63.32;100715.72;6030137;23;20029;-70
2023/06/08 05:49:56;;;;;;;12.13;8.88;;;;;;;20.91;64.08;100733.50;5996882;23;20019;-71
2023/06/08 05:52:22;;;;;;;12.52;9.10;;;;;;;20.48;62.91;100596.19;6024710;23;20019;-71
2023/06/08 05:54:50;;;;;;;9.75;8.73;;;;;;;21.41;62.51;100743.78;5999517;23;20078;-71
2023/06/08 05:57:16;;;;;;;10.02;8.65;;;;;;;20.92;63.81;100713.81;6000887;23;20645;-71
2023/06/08 05:59:43;;;;;;;9.88;8.13;;;;;;;21.28;62.75;100709.41;5985593;23;20028;-70
2023/06/08 06:02:09;;;;;;;9.40;8.30;;;;;;;21.19;62.69;100721.00;5992681;23;20082;-71
2023/06/08 06:04:36;;;;;;;9.68;8.43;;;;;;;21.66;62.68;100749.41;5970431;23;20083;-71
2023/06/08 06:07:07;;;;;;;9.63;8.70;;;;;;;21.50;62.82;100723.38;5990741;23;20484;-71
2023/06/08 06:09:33;;;;;;;15.50;8.65;;;;;;;21.52;62.84;100740.91;5993169;23;20027;-71
2023/06/08 06:12:00;;;;;;;11.98;9.27;;;;;;;22.15;61.87;100759.72;6028029;23;20034;-71
2023/06/08 06:14:39;;;;;;;8.70;8.00;;;;;;;21.95;60.86;100693.09;6187548;22;20197;-71
2023/06/08 06:17:07;;;;;;;9.90;8.13;;;;;;;22.79;58.45;100705.03;6151041;23;20044;-71
2023/06/08 06:19:37;;;;;;;8.77;8.15;;;;;;;21.87;59.72;100637.75;6081709;23;20037;-71
2023/06/08 06:22:09;;;;;;;9.57;8.43;;;;;;;21.49;61.70;100729.72;6105960;23;20025;-71
2023/06/08 06:24:36;;;;;;;12.70;9.15;;;;;;;21.80;62.56;100818.34;6123760;23;20096;-71
2023/06/08 06:27:03;;;;;;;8.80;8.00;;;;;;;20.57;61.65;100621.13;6149433;23;20025;-71
2023/06/08 06:29:30;;;;;;;10.25;8.70;;;;;;;21.16;61.53;100731.97;6121207;23;20040;-71
2023/06/08 06:31:56;;;;;;;9.80;8.68;;;;;;;20.68;63.06;100715.16;6123570;23;20022;-70
2023/06/08 06:34:23;;;;;;;10.32;8.20;;;;;;;20.21;64.81;100778.22;6139180;23;20048;-70
2023/06/08 06:36:49;;;;;;;13.25;9.43;;;;;;;20.58;65.23;100812.97;6136850;23;20096;-71
2023/06/08 06:39:18;;;;;;;9.85;8.82;;;;;;;20.64;64.57;100809.75;6140028;23;20025;-71
2023/06/08 06:41:44;;;;;;;11.05;8.95;;;;;;;20.19;65.43;100788.19;6118086;23;20027;-71
2023/06/08 06:44:10;;;;;;;9.55;8.57;;;;;;;20.69;66.15;100873.38;6142083;23;20035;-71
2023/06/08 06:46:37;;;;;;;9.80;8.90;;;;;;;20.67;65.83;100851.34;6141078;23;20503;-70
2023/06/08 06:49:04;;;;;;;10.85;9.27;;;;;;;20.76;65.55;100842.47;6105966;23;20081;-71
2023/06/08 06:51:30;;;;;;;9.82;8.88;;;;;;;20.61;65.38;100834.06;6145568;23;20013;-71
2023/06/08 06:53:57;;;;;;;10.60;9.40;;;;;;;20.76;66.66;100892.31;6146827;23;20037;-70
2023/06/08 06:56:23;;;;;;;13.85;8.95;;;;;;;20.85;66.26;100883.47;6144623;23;20021;-70
2023/06/08 06:58:52;;;;;;;9.93;8.90;;;;;;;19.48;64.67;100643.63;6138561;23;20103;-70
2023/06/08 07:01:19;;;;;;;9.35;8.07;;;;;;;20.27;66.34;100836.28;6115493;23;20030;-70
2023/06/08 07:03:46;;;;;;;8.52;7.82;;;;;;;20.83;65.28;100874.75;6129075;23;20017;-71
2023/06/08 07:06:13;;;;;;;8.93;8.15;;;;;;;20.76;65.64;100865.63;6115913;23;20025;-71
2023/06/08 07:08:39;;;;;;;9.30;8.50;;;;;;;20.87;64.55;100842.31;6137953;23;20029;-71
2023/06/08 07:11:06;;;;;;;11.52;8.43;;;;;;;20.91;64.69;100840.19;6125538;23;20659;-71
2023/06/08 07:13:32;;;;;;;11.73;8.40;;;;;;;20.89;63.52;100811.00;6140239;23;20031;-71
2023/06/08 07:16:00;;;;;;;10.43;8.30;;;;;;;20.57;64.37;100791.78;6139225;23;20039;-71
2023/06/08 07:18:27;;;;;;;9.93;8.60;;;;;;;20.76;64.25;100837.13;6142039;23;20040;-71
2023/06/08 07:20:53;;;;;;;11.10;8.90;;;;;;;20.83;64.38;100819.56;6141042;23;20017;-71
2023/06/08 07:23:20;;;;;;;8.90;8.15;;;;;;;20.89;64.09;100828.84;6147774;23;20508;-71
2023/06/08 07:26:08;;;;;;;12.52;9.57;;;;;;;20.81;63.79;100805.53;6128543;23;21542;-71
2023/06/08 07:28:55;;;;;;;8.85;7.95;;;;;;;21.27;63.65;100845.72;6095083;23;20022;-71
2023/06/08 07:31:23;;;;;;;12.35;8.82;;;;;;;21.41;63.56;100855.91;6119072;23;20041;-70
2023/06/08 07:33:50;;;;;;;8.68;7.88;;;;;;;21.53;62.93;100856.59;6103088;23;20026;-71
2023/06/08 07:36:17;;;;;;;8.98;8.07;;;;;;;21.26;62.30;100775.44;6123233;23;20021;-70
2023/06/08 07:38:43;;;;;;;8.25;7.55;;;;;;;21.44;61.72;100793.41;6125539;23;20046;-70
2023/06/08 07:41:10;;;;;;;8.57;7.88;;;;;;;21.55;61.76;100817.25;6094546;23;20084;-70
2023/06/08 07:43:36;;;;;;;10.68;8.05;;;;;;;21.84;60.52;100805.53;6119521;23;20031;-70
2023/06/08 07:46:03;;;;;;;8.30;7.60;;;;;;;21.59;60.43;100751.84;6121905;23;20037;-70
2023/06/08 07:48:29;;;;;;;8.77;7.95;;;;;;;21.76;60.06;100762.69;6076558;23;20034;-71
2023/06/08 07:50:56;;;;;;;8.32;7.72;;;;;;;21.66;60.23;100762.75;6122453;23;20020;-70
2023/06/08 07:53:24;;;;;;;11.95;8.27;;;;;;;21.61;60.39;100771.25;6122225;23;20051;-70
2023/06/08 07:55:51;;;;;;;9.98;9.07;;;;;;;21.78;60.74;100803.47;6122404;23;20056;-70
2023/06/08 07:58:17;;;;;;;8.73;7.97;;;;;;;21.63;60.63;100755.91;6096976;23;20044;-71
2023/06/08 08:00:43;;;;;;;8.98;8.13;;;;;;;21.67;59.70;100730.56;6096509;23;20053;-71
2023/06/08 08:03:10;;;;;;;8.43;7.72;;;;;;;21.97;60.35;100815.84;6090102;23;20080;-71
2023/06/08 08:05:36;;;;;;;9.48;8.40;;;;;;;21.93;59.95;100788.59;6067127;23;20057;-71
2023/06/08 08:08:03;;;;;;;9.10;8.27;;;;;;;22.38;59.66;100827.78;6119953;23;20021;-70
2023/06/08 08:10:29;;;;;;;9.43;8.52;;;;;;;22.25;61.41;100846.03;6096546;23;20496;-71
2023/06/08 08:12:56;;;;;;;9.07;8.18;;;;;;;22.66;58.72;100809.78;6122641;23;20572;-71
2023/06/08 08:15:22;;;;;;;9.50;8.60;;;;;;;22.78;57.74;100756.88;6092985;23;20018;-71
2023/06/08 08:17:49;;;;;;;8.82;7.88;;;;;;;22.04;58.95;100712.69;6116129;23;20021;-71
2023/06/08 08:20:16;;;;;;;9.02;8.07;;;;;;;22.47;59.55;100786.75;6069587;23;20021;-71
2023/06/08 08:22:43;;;;;;;8.60;7.82;;;;;;;22.55;58.00;100732.50;6081638;23;20041;-71
2023/06/08 08:25:09;;;;;;;10.55;8.73;;;;;;;23.08;58.92;100808.25;6122210;23;20013;-71
2023/06/08 08:27:36;;;;;;;8.70;7.82;;;;;;;23.47;57.37;100779.16;6100046;23;20010;-71
2023/06/08 08:30:02;;;;;;;9.40;8.70;;;;;;;23.18;56.03;100725.97;6119428;23;20020;-71
2023/06/08 08:32:29;;;;;;;8.70;7.82;;;;;;;23.29;56.59;100757.81;6098724;23;20029;-71
2023/06/08 08:34:56;;;;;;;8.70;7.82;;;;;;;23.07;56.92;100703.03;6121768;23;20100;-71
2023/06/08 08:37:22;;;;;;;8.93;8.23;;;;;;;23.64;57.08;100814.03;6121293;23;20017;-72
2023/06/08 08:39:49;;;;;;;9.80;8.80;;;;;;;23.74;55.77;100765.66;6125150;23;20601;-72
2023/06/08 08:42:22;;;;;;;9.05;8.35;;;;;;;24.05;55.46;100780.13;6123607;23;20469;-71
2023/06/08 08:44:56;;;;;;;9.20;8.40;;;;;;;24.24;55.01;100752.16;6063216;23;20085;-71
2023/06/08 08:47:26;;;;;;;8.40;7.70;;;;;;;24.00;53.87;100682.44;6120261;23;20022;-70
2023/06/08 08:50:03;;;;;;;9.68;8.88;;;;;;;24.27;53.38;100689.28;6125738;23;20033;-70
2023/06/08 08:52:33;;;;;;;8.77;7.97;;;;;;;24.09;53.02;100609.03;6093272;23;20029;-71
2023/06/08 08:55:00;;;;;;;9.52;8.77;;;;;;;24.61;53.03;100713.22;6118225;23;20412;-71
2023/06/08 08:57:31;;;;;;;9.20;8.25;;;;;;;24.77;53.83;100739.19;6094023;23;20026;-71
2023/06/08 08:59:58;;;;;;;9.52;8.73;;;;;;;23.80;53.56;100591.66;6116166;23;20037;-71
2023/06/08 09:02:25;;;;;;;8.48;7.88;;;;;;;24.11;53.98;100689.31;6116394;23;20424;-71
2023/06/08 09:04:53;;;;;;;8.98;8.18;;;;;;;24.33;54.17;100730.69;6118538;23;20033;-71
2023/06/08 09:07:21;;;;;;;8.88;8.18;;;;;;;24.35;53.37;100691.13;6088660;23;20690;-71
2023/06/08 09:10:21;;;;;;;9.15;8.38;;;;;;;24.59;54.01;100749.28;6124021;23;20034;-70
2023/06/08 09:12:50;;;;;;;9.27;7.93;;;;;;;24.66;54.59;100788.69;6117957;23;20073;-71
2023/06/08 09:15:37;;;;;;;8.40;7.80;;;;;;;24.81;54.36;100801.41;6092859;23;20464;-70
2023/06/08 09:18:17;;;;;;;9.27;8.45;;;;;;;24.54;53.97;100722.16;6115581;23;20042;-71
2023/06/08 09:20:45;;;;;;;8.82;8.13;;;;;;;24.98;52.96;100719.00;6119810;23;20042;-70
2023/06/08 09:23:18;;;;;;;11.00;8.68;;;;;;;24.11;54.25;100636.50;6099572;23;20094;-69
2023/06/08 09:25:46;;;;;;;8.82;8.07;;;;;;;24.53;54.23;100731.19;6089772;23;20532;-70
2023/06/08 09:28:18;;;;;;;8.90;8.13;;;;;;;24.76;53.95;100736.69;6123124;23;20497;-70
2023/06/08 09:30:48;;;;;;;9.25;8.45;;;;;;;25.09;53.17;100730.16;6116638;23;20085;-71
2023/06/08 09:33:20;;;;;;;9.52;8.63;;;;;;;25.32;53.29;100788.56;6056652;23;20034;-70
2023/06/08 09:36:04;;;;;;;9.00;8.30;;;;;;;25.52;52.14;100713.72;6118270;23;20025;-71
2023/06/08 09:38:32;;;;;;;9.38;8.57;;;;;;;25.47;52.62;100732.22;6116864;23;20476;-70
2023/06/08 09:41:16;;;;;;;9.45;8.63;;;;;;;25.47;51.94;100708.84;6091707;23;20459;-70
2023/06/08 09:43:45;;;;;;;9.77;8.98;;;;;;;25.31;52.41;100708.97;6120276;23;20023;-70
2023/06/08 09:46:16;;;;;;;10.10;9.07;;;;;;;25.13;52.72;100711.03;6087667;23;20022;-71
2023/06/08 09:48:53;;;;;;;9.85;8.93;;;;;;;25.69;52.14;100730.56;6080897;23;20038;-71
2023/06/08 09:51:24;;;;;;;9.20;8.40;;;;;;;25.48;50.97;100621.88;6071279;23;20041;-70
2023/06/08 09:53:57;;;;;;;10.77;8.48;;;;;;;25.39;52.13;100719.66;6114269;23;20681;-70
2023/06/08 09:56:26;;;;;;;9.27;8.57;;;;;;;25.18;51.51;100623.56;6117302;23;20112;-70
2023/06/08 09:58:56;;;;;;;11.48;8.30;;;;;;;25.99;51.10;100725.34;6091525;23;20017;-71
2023/06/08 10:01:38;;;;;;;9.88;8.60;;;;;;;26.37;49.93;100683.13;6122586;23;20501;-70
2023/06/08 10:04:22;;;;;;;12.85;9.10;;;;;;;26.55;49.82;100706.97;6088532;23;20044;-70
2023/06/08 10:06:56;;;;;;;8.75;8.05;;;;;;;26.63;48.91;100665.72;6116957;23;20100;-69
2023/06/08 10:09:28;;;;;;;9.30;8.38;;;;;;;26.26;50.18;100664.75;6097163;23;20009;-69
2023/06/08 10:12:00;;;;;;;11.70;8.07;;;;;;;25.85;50.96;100668.59;6123871;23;20017;-69
2023/06/08 10:14:26;;;;;;;9.32;8.43;;;;;;;26.51;50.45;100726.38;6102727;23;20568;-69
2023/06/08 10:16:57;;;;;;;8.32;7.72;;;;;;;26.50;49.69;100660.97;6114660;23;20045;-68
2023/06/08 10:19:24;;;;;;;9.23;8.13;;;;;;;26.65;49.75;100707.56;6093659;23;20456;-71
2023/06/08 10:21:52;;;;;;;9.30;8.10;;;;;;;27.31;48.53;100722.13;6118741;23;20017;-71
2023/06/08 10:24:22;;;;;;;9.13;8.45;;;;;;;27.11;48.27;100647.25;6088289;23;20068;-70
2023/06/08 10:26:50;;;;;;;10.27;8.52;;;;;;;26.73;47.78;100598.13;6130305;23;20479;-70
2023/06/08 10:29:17;;;;;;;8.90;7.93;;;;;;;26.47;49.05;100635.25;6096275;23;20665;-69
2023/06/08 10:31:49;;;;;;;9.15;8.38;;;;;;;25.88;49.78;100576.84;6115448;23;20180;-70
2023/06/08 10:34:17;;;;;;;8.88;8.10;;;;;;;25.72;49.82;100603.88;6091509;23;20103;-70
2023/06/08 10:36:44;;;;;;;8.75;8.00;;;;;;;25.15;49.58;100494.16;6128120;23;20013;-70
2023/06/08 10:39:16;;;;;;;8.98;8.15;;;;;;;26.37;49.53;100676.91;6098700;23;20028;-70
2023/06/08 10:41:45;;;;;;;8.38;7.78;;;;;;;26.71;48.73;100662.09;6115725;23;20016;-69
2023/06/08 10:44:28;;;;;;;9.13;8.40;;;;;;;26.41;49.92;100672.81;6089251;23;20240;-69
2023/06/08 10:47:08;;;;;;;9.02;8.30;;;;;;;26.43;50.36;100724.59;6086011;23;20022;-69
2023/06/08 10:49:38;;;;;;;8.32;7.72;;;;;;;26.34;49.07;100615.38;6069654;23;20444;-69
2023/06/08 10:52:10;;;;;;;9.38;8.57;;;;;;;26.14;49.75;100605.19;6091576;23;21258;-70
2023/06/08 10:54:52;;;;;;;9.23;8.32;;;;;;;26.52;49.69;100653.53;6112167;23;20655;-69
2023/06/08 10:57:36;;;;;;;;;;;;;;;26.42;50.92;100714.84;5982167;23;20142;-68
2023/06/08 11:00:26;;;;;;;8.63;8.02;;;;;;;26.30;50.41;100667.88;6111394;23;19916;-69
2023/06/08 11:02:54;;;;;;;9.00;8.20;;;;;;;26.69;50.97;100739.53;6092318;23;20021;-71
2023/06/08 11:05:23;;;;;;;9.10;8.40;;;;;;;26.53;49.17;100606.75;6094648;23;20629;-69
2023/06/08 11:07:52;;;;;;;8.60;8.00;;;;;;;26.32;49.07;100561.78;6126045;23;20088;-69
2023/06/08 11:10:23;;;;;;;8.65;8.05;;;;;;;26.88;48.48;100642.00;6090675;23;20775;-68
2023/06/08 11:12:49;;;;;;;8.73;8.05;;;;;;;26.99;48.04;100592.22;6120272;23;20498;-69
2023/06/08 11:15:17;;;;;;;8.45;7.75;;;;;;;26.55;49.37;100614.66;6095861;23;20050;-69
2023/06/08 11:17:50;;;;;;;8.60;7.90;;;;;;;26.40;48.54;100558.13;6119133;23;20503;-70
2023/06/08 11:20:17;;;;;;;8.38;7.78;;;;;;;27.43;48.80;100707.97;6129856;23;20029;-69
2023/06/08 11:22:44;;;;;;;8.75;8.07;;;;;;;27.66;46.06;100593.69;6127622;23;20084;-71
2023/06/08 11:25:10;;;;;;;8.98;8.18;;;;;;;26.76;47.40;100492.72;6125635;23;20037;-68
2023/06/08 11:27:43;;;;;;;9.43;8.50;;;;;;;27.15;47.32;100583.06;6071613;23;20030;-69
2023/06/08 11:30:20;;;;;;;9.25;8.45;;;;;;;28.09;46.24;100655.72;6123159;23;20408;-69